sensor_id;sensor_type;location;lat;lon;timestamp;P1;durP1;ratioP1;P2;durP2;ratioP2
11964;SDS011;6042;41.326;19.826;2023-02-11T00:01:21;32.07;;;14.20;;
11964;SDS011;6042;41.326;19.826;2023-02-11T00:03:53;34.83;;;13.87;;
11964;SDS011;6042;41.326;19.826;2023-02-11T00:06:22;24.83;;;15.40;;
11964;SDS011;6042;41.326;19.826;2023-02-11T00:08:51;17.77;;;10.00;;
11964;SDS011;6042;41.326;19.826;2023-02-11T00:11:20;16.10;;;9.87;;
11964;SDS011;6042;41.326;19.826;2023-02-11T00:13:51;12.90;;;8.00;;
11964;SDS011;6042;41.326;19.826;2023-02-11T00:16:19;9.73;;;7.53;;
11964;SDS011;6042;41.326;19.826;2023-02-11T00:18:48;8.70;;;6.80;;
11964;SDS011;6042;41.326;19.826;2023-02-11T00:21:21;13.23;;;7.70;;
11964;SDS011;6042;41.326;19.826;2023-02-11T00:23:51;14.23;;;8.07;;
11964;SDS011;6042;41.326;19.826;2023-02-11T00:26:21;11.03;;;7.87;;
11964;SDS011;6042;41.326;19.826;2023-02-11T00:28:51;13.87;;;7.97;;
11964;SDS011;6042;41.326;19.826;2023-02-11T00:31:21;12.43;;;6.60;;
11964;SDS011;6042;41.326;19.826;2023-02-11T00:33:51;18.43;;;6.90;;
11964;SDS011;6042;41.326;19.826;2023-02-11T00:36:22;9.33;;;7.13;;
11964;SDS011;6042;41.326;19.826;2023-02-11T00:38:53;13.90;;;7.00;;
11964;SDS011;6042;41.326;19.826;2023-02-11T00:41:22;12.67;;;7.70;;
11964;SDS011;6042;41.326;19.826;2023-02-11T00:43:51;12.63;;;7.23;;
11964;SDS011;6042;41.326;19.826;2023-02-11T00:46:20;10.60;;;6.90;;
11964;SDS011;6042;41.326;19.826;2023-02-11T00:48:49;9.43;;;6.47;;
11964;SDS011;6042;41.326;19.826;2023-02-11T00:51:23;11.07;;;7.13;;
11964;SDS011;6042;41.326;19.826;2023-02-11T00:53:51;11.87;;;7.37;;
11964;SDS011;6042;41.326;19.826;2023-02-11T00:56:21;10.17;;;7.33;;
11964;SDS011;6042;41.326;19.826;2023-02-11T00:58:50;10.23;;;6.50;;
11964;SDS011;6042;41.326;19.826;2023-02-11T01:01:19;11.03;;;7.47;;
11964;SDS011;6042;41.326;19.826;2023-02-11T01:03:48;12.53;;;7.83;;
11964;SDS011;6042;41.326;19.826;2023-02-11T01:06:17;11.30;;;6.60;;
11964;SDS011;6042;41.326;19.826;2023-02-11T01:08:47;7.63;;;5.83;;
11964;SDS011;6042;41.326;19.826;2023-02-11T01:11:17;7.67;;;5.73;;
11964;SDS011;6042;41.326;19.826;2023-02-11T01:13:48;6.43;;;5.33;;
11964;SDS011;6042;41.326;19.826;2023-02-11T01:16:18;6.87;;;5.20;;
11964;SDS011;6042;41.326;19.826;2023-02-11T01:18:47;5.97;;;5.23;;
11964;SDS011;6042;41.326;19.826;2023-02-11T01:21:16;8.90;;;5.77;;
11964;SDS011;6042;41.326;19.826;2023-02-11T01:23:44;7.37;;;5.10;;
11964;SDS011;6042;41.326;19.826;2023-02-11T01:26:15;6.57;;;5.43;;
11964;SDS011;6042;41.326;19.826;2023-02-11T01:28:44;8.43;;;6.03;;
11964;SDS011;6042;41.326;19.826;2023-02-11T01:31:13;14.00;;;6.30;;
11964;SDS011;6042;41.326;19.826;2023-02-11T01:33:41;6.60;;;5.60;;
11964;SDS011;6042;41.326;19.826;2023-02-11T01:36:10;7.67;;;5.43;;
11964;SDS011;6042;41.326;19.826;2023-02-11T01:38:39;8.00;;;5.17;;
11964;SDS011;6042;41.326;19.826;2023-02-11T01:41:12;6.57;;;5.23;;
11964;SDS011;6042;41.326;19.826;2023-02-11T01:43:43;8.77;;;5.33;;
11964;SDS011;6042;41.326;19.826;2023-02-11T01:46:16;8.17;;;5.80;;
11964;SDS011;6042;41.326;19.826;2023-02-11T01:48:52;8.10;;;6.13;;
11964;SDS011;6042;41.326;19.826;2023-02-11T01:51:25;7.43;;;5.83;;
11964;SDS011;6042;41.326;19.826;2023-02-11T01:53:58;13.67;;;6.17;;
11964;SDS011;6042;41.326;19.826;2023-02-11T01:56:48;14.57;;;6.10;;
11964;SDS011;6042;41.326;19.826;2023-02-11T01:59:38;10.60;;;6.27;;
11964;SDS011;6042;41.326;19.826;2023-02-11T02:02:13;9.37;;;5.67;;
11964;SDS011;6042;41.326;19.826;2023-02-11T02:04:45;8.77;;;5.43;;
11964;SDS011;6042;41.326;19.826;2023-02-11T02:07:20;6.87;;;5.57;;
11964;SDS011;6042;41.326;19.826;2023-02-11T02:09:57;7.97;;;5.30;;
11964;SDS011;6042;41.326;19.826;2023-02-11T02:12:31;7.13;;;5.10;;
11964;SDS011;6042;41.326;19.826;2023-02-11T02:18:02;9.67;;;5.10;;
11964;SDS011;6042;41.326;19.826;2023-02-11T02:20:48;8.70;;;4.80;;
11964;SDS011;6042;41.326;19.826;2023-02-11T02:29:54;7.77;;;5.77;;
11964;SDS011;6042;41.326;19.826;2023-02-11T02:32:51;9.97;;;5.50;;
11964;SDS011;6042;41.326;19.826;2023-02-11T02:35:50;8.37;;;5.20;;
11964;SDS011;6042;41.326;19.826;2023-02-11T02:38:26;7.50;;;4.83;;
11964;SDS011;6042;41.326;19.826;2023-02-11T02:41:01;7.33;;;4.77;;
11964;SDS011;6042;41.326;19.826;2023-02-11T02:43:36;5.50;;;4.63;;
11964;SDS011;6042;41.326;19.826;2023-02-11T02:46:12;5.33;;;4.23;;
11964;SDS011;6042;41.326;19.826;2023-02-11T02:48:45;8.17;;;5.07;;
11964;SDS011;6042;41.326;19.826;2023-02-11T02:51:30;8.00;;;4.50;;
11964;SDS011;6042;41.326;19.826;2023-02-11T02:54:16;5.30;;;4.50;;
11964;SDS011;6042;41.326;19.826;2023-02-11T02:57:05;7.90;;;5.13;;
11964;SDS011;6042;41.326;19.826;2023-02-11T02:59:43;5.73;;;5.13;;
11964;SDS011;6042;41.326;19.826;2023-02-11T03:02:19;6.30;;;5.07;;
11964;SDS011;6042;41.326;19.826;2023-02-11T03:04:56;9.30;;;6.00;;
11964;SDS011;6042;41.326;19.826;2023-02-11T03:07:32;7.77;;;5.57;;
11964;SDS011;6042;41.326;19.826;2023-02-11T03:10:08;8.13;;;6.00;;
11964;SDS011;6042;41.326;19.826;2023-02-11T03:12:41;14.60;;;6.30;;
11964;SDS011;6042;41.326;19.826;2023-02-11T03:15:12;9.13;;;5.87;;
11964;SDS011;6042;41.326;19.826;2023-02-11T03:17:41;9.40;;;6.07;;
11964;SDS011;6042;41.326;19.826;2023-02-11T03:20:16;7.17;;;5.47;;
11964;SDS011;6042;41.326;19.826;2023-02-11T03:22:47;10.17;;;5.90;;
11964;SDS011;6042;41.326;19.826;2023-02-11T03:25:19;7.80;;;5.50;;
11964;SDS011;6042;41.326;19.826;2023-02-11T03:27:57;11.13;;;6.50;;
11964;SDS011;6042;41.326;19.826;2023-02-11T03:30:32;7.97;;;6.23;;
11964;SDS011;6042;41.326;19.826;2023-02-11T03:33:06;7.57;;;5.60;;
11964;SDS011;6042;41.326;19.826;2023-02-11T03:35:42;7.80;;;5.10;;
11964;SDS011;6042;41.326;19.826;2023-02-11T03:38:18;7.57;;;5.20;;
11964;SDS011;6042;41.326;19.826;2023-02-11T03:40:50;7.03;;;5.50;;
11964;SDS011;6042;41.326;19.826;2023-02-11T03:43:21;9.57;;;4.93;;
11964;SDS011;6042;41.326;19.826;2023-02-11T03:45:55;7.87;;;5.13;;
11964;SDS011;6042;41.326;19.826;2023-02-11T03:48:24;11.77;;;6.07;;
11964;SDS011;6042;41.326;19.826;2023-02-11T03:50:58;10.10;;;5.30;;
11964;SDS011;6042;41.326;19.826;2023-02-11T03:53:30;6.40;;;5.20;;
11964;SDS011;6042;41.326;19.826;2023-02-11T03:55:59;8.43;;;5.30;;
11964;SDS011;6042;41.326;19.826;2023-02-11T03:58:33;6.40;;;4.73;;
11964;SDS011;6042;41.326;19.826;2023-02-11T04:01:01;7.40;;;4.83;;
11964;SDS011;6042;41.326;19.826;2023-02-11T04:03:31;8.47;;;4.50;;
11964;SDS011;6042;41.326;19.826;2023-02-11T04:06:01;7.03;;;4.97;;
11964;SDS011;6042;41.326;19.826;2023-02-11T04:08:30;6.10;;;4.67;;
11964;SDS011;6042;41.326;19.826;2023-02-11T04:10:59;5.50;;;4.83;;
11964;SDS011;6042;41.326;19.826;2023-02-11T04:13:27;8.43;;;4.87;;
11964;SDS011;6042;41.326;19.826;2023-02-11T04:15:56;8.07;;;4.80;;
11964;SDS011;6042;41.326;19.826;2023-02-11T04:18:27;5.57;;;4.77;;
11964;SDS011;6042;41.326;19.826;2023-02-11T04:20:55;5.93;;;4.70;;
11964;SDS011;6042;41.326;19.826;2023-02-11T04:23:25;7.90;;;4.83;;
11964;SDS011;6042;41.326;19.826;2023-02-11T04:25:54;8.90;;;5.30;;
11964;SDS011;6042;41.326;19.826;2023-02-11T04:28:23;10.53;;;5.50;;
11964;SDS011;6042;41.326;19.826;2023-02-11T04:30:55;8.60;;;5.37;;
11964;SDS011;6042;41.326;19.826;2023-02-11T04:33:24;7.27;;;4.57;;
11964;SDS011;6042;41.326;19.826;2023-02-11T04:35:52;6.57;;;4.87;;
11964;SDS011;6042;41.326;19.826;2023-02-11T04:38:21;5.23;;;4.60;;
11964;SDS011;6042;41.326;19.826;2023-02-11T04:40:52;9.77;;;5.20;;
11964;SDS011;6042;41.326;19.826;2023-02-11T04:43:21;5.77;;;4.80;;
11964;SDS011;6042;41.326;19.826;2023-02-11T04:45:49;6.93;;;4.73;;
11964;SDS011;6042;41.326;19.826;2023-02-11T04:48:18;6.37;;;4.43;;
11964;SDS011;6042;41.326;19.826;2023-02-11T04:50:47;6.60;;;4.57;;
11964;SDS011;6042;41.326;19.826;2023-02-11T04:53:15;8.10;;;4.90;;
11964;SDS011;6042;41.326;19.826;2023-02-11T04:55:44;5.70;;;4.77;;
11964;SDS011;6042;41.326;19.826;2023-02-11T04:58:18;16.17;;;6.10;;
11964;SDS011;6042;41.326;19.826;2023-02-11T05:00:47;6.37;;;4.97;;
11964;SDS011;6042;41.326;19.826;2023-02-11T05:03:15;8.60;;;5.60;;
11964;SDS011;6042;41.326;19.826;2023-02-11T05:05:44;10.60;;;4.87;;
11964;SDS011;6042;41.326;19.826;2023-02-11T05:08:12;5.53;;;4.43;;
11964;SDS011;6042;41.326;19.826;2023-02-11T05:10:44;7.70;;;4.53;;
11964;SDS011;6042;41.326;19.826;2023-02-11T05:13:13;5.67;;;4.97;;
11964;SDS011;6042;41.326;19.826;2023-02-11T05:15:43;6.77;;;4.70;;
11964;SDS011;6042;41.326;19.826;2023-02-11T05:18:12;8.03;;;5.30;;
11964;SDS011;6042;41.326;19.826;2023-02-11T05:20:41;6.23;;;4.97;;
11964;SDS011;6042;41.326;19.826;2023-02-11T05:23:10;6.93;;;5.10;;
11964;SDS011;6042;41.326;19.826;2023-02-11T05:25:39;5.63;;;4.73;;
11964;SDS011;6042;41.326;19.826;2023-02-11T05:28:07;14.50;;;6.10;;
11964;SDS011;6042;41.326;19.826;2023-02-11T05:30:36;8.03;;;5.40;;
11964;SDS011;6042;41.326;19.826;2023-02-11T05:33:06;14.77;;;6.50;;
11964;SDS011;6042;41.326;19.826;2023-02-11T05:35:34;11.07;;;5.00;;
11964;SDS011;6042;41.326;19.826;2023-02-11T05:38:03;8.33;;;5.50;;
11964;SDS011;6042;41.326;19.826;2023-02-11T05:40:31;7.43;;;6.10;;
11964;SDS011;6042;41.326;19.826;2023-02-11T05:43:00;16.70;;;5.80;;
11964;SDS011;6042;41.326;19.826;2023-02-11T05:45:29;7.77;;;5.47;;
11964;SDS011;6042;41.326;19.826;2023-02-11T05:47:57;13.07;;;6.10;;
11964;SDS011;6042;41.326;19.826;2023-02-11T05:50:28;17.43;;;7.77;;
11964;SDS011;6042;41.326;19.826;2023-02-11T05:52:56;7.23;;;5.97;;
11964;SDS011;6042;41.326;19.826;2023-02-11T05:55:25;9.40;;;6.33;;
11964;SDS011;6042;41.326;19.826;2023-02-11T05:57:53;17.60;;;7.43;;
11964;SDS011;6042;41.326;19.826;2023-02-11T06:00:22;15.57;;;6.83;;
11964;SDS011;6042;41.326;19.826;2023-02-11T06:02:51;12.43;;;6.20;;
11964;SDS011;6042;41.326;19.826;2023-02-11T06:05:20;16.33;;;6.70;;
11964;SDS011;6042;41.326;19.826;2023-02-11T06:07:50;10.20;;;5.87;;
11964;SDS011;6042;41.326;19.826;2023-02-11T06:10:18;7.90;;;5.40;;
11964;SDS011;6042;41.326;19.826;2023-02-11T06:12:47;11.53;;;6.03;;
11964;SDS011;6042;41.326;19.826;2023-02-11T06:15:16;8.00;;;4.87;;
11964;SDS011;6042;41.326;19.826;2023-02-11T06:17:44;9.97;;;5.13;;
11964;SDS011;6042;41.326;19.826;2023-02-11T06:20:13;6.03;;;4.80;;
11964;SDS011;6042;41.326;19.826;2023-02-11T06:22:42;10.30;;;5.80;;
11964;SDS011;6042;41.326;19.826;2023-02-11T06:25:12;7.00;;;5.53;;
11964;SDS011;6042;41.326;19.826;2023-02-11T06:27:41;8.43;;;5.70;;
11964;SDS011;6042;41.326;19.826;2023-02-11T06:30:10;22.20;;;7.20;;
11964;SDS011;6042;41.326;19.826;2023-02-11T06:32:39;8.00;;;5.50;;
11964;SDS011;6042;41.326;19.826;2023-02-11T06:35:11;15.90;;;6.07;;
11964;SDS011;6042;41.326;19.826;2023-02-11T06:37:40;12.83;;;6.10;;
11964;SDS011;6042;41.326;19.826;2023-02-11T06:40:09;14.17;;;6.07;;
11964;SDS011;6042;41.326;19.826;2023-02-11T06:42:39;14.43;;;6.50;;
11964;SDS011;6042;41.326;19.826;2023-02-11T06:45:09;16.47;;;6.80;;
11964;SDS011;6042;41.326;19.826;2023-02-11T06:47:38;13.30;;;6.83;;
11964;SDS011;6042;41.326;19.826;2023-02-11T06:50:09;9.87;;;5.27;;
11964;SDS011;6042;41.326;19.826;2023-02-11T06:52:40;25.67;;;8.27;;
11964;SDS011;6042;41.326;19.826;2023-02-11T06:55:08;17.73;;;6.40;;
11964;SDS011;6042;41.326;19.826;2023-02-11T06:57:37;22.07;;;6.17;;
11964;SDS011;6042;41.326;19.826;2023-02-11T07:00:08;17.47;;;6.83;;
11964;SDS011;6042;41.326;19.826;2023-02-11T07:02:37;24.07;;;7.73;;
11964;SDS011;6042;41.326;19.826;2023-02-11T07:05:06;24.57;;;7.70;;
11964;SDS011;6042;41.326;19.826;2023-02-11T07:07:35;23.80;;;7.60;;
11964;SDS011;6042;41.326;19.826;2023-02-11T07:10:04;11.50;;;6.70;;
11964;SDS011;6042;41.326;19.826;2023-02-11T07:12:34;28.57;;;9.20;;
11964;SDS011;6042;41.326;19.826;2023-02-11T07:15:02;18.33;;;6.87;;
11964;SDS011;6042;41.326;19.826;2023-02-11T07:17:34;15.90;;;8.20;;
11964;SDS011;6042;41.326;19.826;2023-02-11T07:20:03;20.53;;;8.07;;
11964;SDS011;6042;41.326;19.826;2023-02-11T07:22:32;19.73;;;7.37;;
11964;SDS011;6042;41.326;19.826;2023-02-11T07:25:01;14.30;;;7.03;;
11964;SDS011;6042;41.326;19.826;2023-02-11T07:27:30;18.67;;;8.23;;
11964;SDS011;6042;41.326;19.826;2023-02-11T07:29:58;15.60;;;7.83;;
11964;SDS011;6042;41.326;19.826;2023-02-11T07:32:27;13.10;;;7.63;;
11964;SDS011;6042;41.326;19.826;2023-02-11T07:34:57;31.57;;;9.73;;
11964;SDS011;6042;41.326;19.826;2023-02-11T07:37:25;11.93;;;6.63;;
11964;SDS011;6042;41.326;19.826;2023-02-11T07:39:54;12.43;;;5.70;;
11964;SDS011;6042;41.326;19.826;2023-02-11T07:42:23;10.20;;;6.33;;
11964;SDS011;6042;41.326;19.826;2023-02-11T07:44:52;7.80;;;5.53;;
11964;SDS011;6042;41.326;19.826;2023-02-11T07:47:20;15.57;;;5.90;;
11964;SDS011;6042;41.326;19.826;2023-02-11T07:49:49;12.27;;;6.10;;
11964;SDS011;6042;41.326;19.826;2023-02-11T07:52:23;13.80;;;6.57;;
11964;SDS011;6042;41.326;19.826;2023-02-11T07:54:51;11.80;;;7.07;;
11964;SDS011;6042;41.326;19.826;2023-02-11T07:57:20;12.60;;;7.53;;
11964;SDS011;6042;41.326;19.826;2023-02-11T07:59:48;14.20;;;8.23;;
11964;SDS011;6042;41.326;19.826;2023-02-11T08:02:17;13.47;;;7.40;;
11964;SDS011;6042;41.326;19.826;2023-02-11T08:04:46;9.30;;;7.03;;
11964;SDS011;6042;41.326;19.826;2023-02-11T08:07:15;11.27;;;7.37;;
11964;SDS011;6042;41.326;19.826;2023-02-11T08:09:45;8.80;;;6.93;;
11964;SDS011;6042;41.326;19.826;2023-02-11T08:12:14;12.93;;;8.10;;
11964;SDS011;6042;41.326;19.826;2023-02-11T08:14:42;16.53;;;7.47;;
11964;SDS011;6042;41.326;19.826;2023-02-11T08:17:11;19.63;;;8.87;;
11964;SDS011;6042;41.326;19.826;2023-02-11T08:19:39;13.37;;;7.00;;
11964;SDS011;6042;41.326;19.826;2023-02-11T08:22:08;14.80;;;6.83;;
11964;SDS011;6042;41.326;19.826;2023-02-11T08:24:37;11.87;;;7.23;;
11964;SDS011;6042;41.326;19.826;2023-02-11T08:27:07;7.43;;;6.53;;
11964;SDS011;6042;41.326;19.826;2023-02-11T08:29:35;12.70;;;7.47;;
11964;SDS011;6042;41.326;19.826;2023-02-11T08:32:04;11.33;;;7.57;;
11964;SDS011;6042;41.326;19.826;2023-02-11T08:34:32;13.37;;;8.30;;
11964;SDS011;6042;41.326;19.826;2023-02-11T08:37:03;13.93;;;8.57;;
11964;SDS011;6042;41.326;19.826;2023-02-11T08:39:31;13.57;;;7.83;;
11964;SDS011;6042;41.326;19.826;2023-02-11T08:42:00;15.17;;;7.83;;
11964;SDS011;6042;41.326;19.826;2023-02-11T08:44:30;12.33;;;7.40;;
11964;SDS011;6042;41.326;19.826;2023-02-11T08:46:58;9.77;;;7.30;;
11964;SDS011;6042;41.326;19.826;2023-02-11T08:49:27;14.13;;;7.50;;
11964;SDS011;6042;41.326;19.826;2023-02-11T08:51:57;22.60;;;7.57;;
11964;SDS011;6042;41.326;19.826;2023-02-11T08:54:29;17.17;;;9.07;;
11964;SDS011;6042;41.326;19.826;2023-02-11T08:56:58;21.83;;;12.57;;
11964;SDS011;6042;41.326;19.826;2023-02-11T08:59:31;21.10;;;13.20;;
11964;SDS011;6042;41.326;19.826;2023-02-11T09:02:00;29.13;;;15.40;;
11964;SDS011;6042;41.326;19.826;2023-02-11T09:04:28;27.87;;;15.03;;
11964;SDS011;6042;41.326;19.826;2023-02-11T09:06:57;29.97;;;18.40;;
11964;SDS011;6042;41.326;19.826;2023-02-11T09:09:26;28.83;;;16.67;;
11964;SDS011;6042;41.326;19.826;2023-02-11T09:11:54;26.50;;;16.83;;
11964;SDS011;6042;41.326;19.826;2023-02-11T09:14:26;28.33;;;17.77;;
11964;SDS011;6042;41.326;19.826;2023-02-11T09:16:56;28.20;;;15.80;;
11964;SDS011;6042;41.326;19.826;2023-02-11T09:19:25;30.20;;;16.70;;
11964;SDS011;6042;41.326;19.826;2023-02-11T09:21:54;26.90;;;15.70;;
11964;SDS011;6042;41.326;19.826;2023-02-11T09:24:23;25.93;;;14.17;;
11964;SDS011;6042;41.326;19.826;2023-02-11T09:26:52;22.27;;;13.63;;
11964;SDS011;6042;41.326;19.826;2023-02-11T09:29:20;31.27;;;14.90;;
11964;SDS011;6042;41.326;19.826;2023-02-11T09:31:49;20.97;;;12.13;;
11964;SDS011;6042;41.326;19.826;2023-02-11T09:34:19;22.17;;;12.33;;
11964;SDS011;6042;41.326;19.826;2023-02-11T09:36:48;20.00;;;11.63;;
11964;SDS011;6042;41.326;19.826;2023-02-11T09:39:17;19.03;;;12.47;;
11964;SDS011;6042;41.326;19.826;2023-02-11T09:44:52;26.37;;;14.20;;
11964;SDS011;6042;41.326;19.826;2023-02-11T09:47:23;19.23;;;13.80;;
11964;SDS011;6042;41.326;19.826;2023-02-11T09:49:57;24.87;;;14.17;;
11964;SDS011;6042;41.326;19.826;2023-02-11T09:52:31;22.97;;;12.43;;
11964;SDS011;6042;41.326;19.826;2023-02-11T09:55:04;32.83;;;13.63;;
11964;SDS011;6042;41.326;19.826;2023-02-11T09:57:41;24.57;;;11.93;;
11964;SDS011;6042;41.326;19.826;2023-02-11T10:00:16;12.93;;;9.33;;
11964;SDS011;6042;41.326;19.826;2023-02-11T10:02:56;9.27;;;5.00;;
11964;SDS011;6042;41.326;19.826;2023-02-11T10:05:46;13.00;;;8.37;;
11964;SDS011;6042;41.326;19.826;2023-02-11T10:08:33;12.57;;;7.60;;
11964;SDS011;6042;41.326;19.826;2023-02-11T10:11:13;12.23;;;6.97;;
11964;SDS011;6042;41.326;19.826;2023-02-11T10:14:00;13.60;;;10.20;;
11964;SDS011;6042;41.326;19.826;2023-02-11T10:16:43;15.60;;;10.13;;
11964;SDS011;6042;41.326;19.826;2023-02-11T10:19:25;14.13;;;9.43;;
11964;SDS011;6042;41.326;19.826;2023-02-11T10:22:08;12.63;;;9.83;;
11964;SDS011;6042;41.326;19.826;2023-02-11T10:24:42;13.27;;;9.00;;
11964;SDS011;6042;41.326;19.826;2023-02-11T10:27:18;10.57;;;8.17;;
11964;SDS011;6042;41.326;19.826;2023-02-11T10:29:48;9.83;;;6.90;;
11964;SDS011;6042;41.326;19.826;2023-02-11T10:32:24;6.70;;;5.90;;
11964;SDS011;6042;41.326;19.826;2023-02-11T10:34:59;11.27;;;6.00;;
11964;SDS011;6042;41.326;19.826;2023-02-11T10:37:32;12.73;;;7.60;;
11964;SDS011;6042;41.326;19.826;2023-02-11T10:40:01;11.73;;;5.73;;
11964;SDS011;6042;41.326;19.826;2023-02-11T10:42:29;9.57;;;6.17;;
11964;SDS011;6042;41.326;19.826;2023-02-11T10:44:59;7.27;;;6.23;;
11964;SDS011;6042;41.326;19.826;2023-02-11T10:47:34;14.80;;;7.03;;
11964;SDS011;6042;41.326;19.826;2023-02-11T10:50:17;8.80;;;6.27;;
11964;SDS011;6042;41.326;19.826;2023-02-11T10:52:50;16.27;;;6.93;;
11964;SDS011;6042;41.326;19.826;2023-02-11T10:55:19;8.20;;;6.83;;
11964;SDS011;6042;41.326;19.826;2023-02-11T10:57:52;8.70;;;6.07;;
11964;SDS011;6042;41.326;19.826;2023-02-11T11:00:29;10.80;;;6.10;;
11964;SDS011;6042;41.326;19.826;2023-02-11T11:03:04;8.30;;;6.40;;
11964;SDS011;6042;41.326;19.826;2023-02-11T11:05:45;6.83;;;6.13;;
11964;SDS011;6042;41.326;19.826;2023-02-11T11:08:17;8.80;;;7.13;;
11964;SDS011;6042;41.326;19.826;2023-02-11T11:10:47;7.70;;;5.80;;
11964;SDS011;6042;41.326;19.826;2023-02-11T11:13:32;9.93;;;6.20;;
11964;SDS011;6042;41.326;19.826;2023-02-11T11:16:06;12.43;;;7.20;;
11964;SDS011;6042;41.326;19.826;2023-02-11T11:18:37;10.77;;;7.37;;
11964;SDS011;6042;41.326;19.826;2023-02-11T11:21:09;9.23;;;6.80;;
11964;SDS011;6042;41.326;19.826;2023-02-11T11:23:46;11.60;;;6.93;;
11964;SDS011;6042;41.326;19.826;2023-02-11T11:26:17;7.87;;;6.00;;
11964;SDS011;6042;41.326;19.826;2023-02-11T11:28:52;8.97;;;5.80;;
11964;SDS011;6042;41.326;19.826;2023-02-11T11:31:28;11.67;;;6.30;;
11964;SDS011;6042;41.326;19.826;2023-02-11T11:34:04;11.10;;;6.67;;
11964;SDS011;6042;41.326;19.826;2023-02-11T11:36:47;8.43;;;5.53;;
11964;SDS011;6042;41.326;19.826;2023-02-11T11:39:20;11.13;;;6.07;;
11964;SDS011;6042;41.326;19.826;2023-02-11T11:41:53;6.73;;;5.57;;
11964;SDS011;6042;41.326;19.826;2023-02-11T11:44:28;6.10;;;5.30;;
11964;SDS011;6042;41.326;19.826;2023-02-11T11:50:08;7.13;;;4.87;;
11964;SDS011;6042;41.326;19.826;2023-02-11T11:52:49;5.73;;;5.13;;
11964;SDS011;6042;41.326;19.826;2023-02-11T11:55:26;5.67;;;3.93;;
11964;SDS011;6042;41.326;19.826;2023-02-11T11:57:58;10.30;;;6.07;;
11964;SDS011;6042;41.326;19.826;2023-02-11T12:00:32;10.77;;;7.10;;
11964;SDS011;6042;41.326;19.826;2023-02-11T12:03:22;10.10;;;7.13;;
11964;SDS011;6042;41.326;19.826;2023-02-11T12:06:29;13.07;;;7.00;;
11964;SDS011;6042;41.326;19.826;2023-02-11T12:09:08;10.93;;;7.57;;
11964;SDS011;6042;41.326;19.826;2023-02-11T12:11:51;10.90;;;6.87;;
11964;SDS011;6042;41.326;19.826;2023-02-11T12:14:34;11.07;;;7.20;;
11964;SDS011;6042;41.326;19.826;2023-02-11T12:17:13;9.00;;;6.80;;
11964;SDS011;6042;41.326;19.826;2023-02-11T12:19:58;13.60;;;7.13;;
11964;SDS011;6042;41.326;19.826;2023-02-11T12:22:49;8.27;;;6.33;;
11964;SDS011;6042;41.326;19.826;2023-02-11T12:25:30;18.37;;;7.13;;
11964;SDS011;6042;41.326;19.826;2023-02-11T12:28:09;10.50;;;7.30;;
11964;SDS011;6042;41.326;19.826;2023-02-11T12:31:00;10.83;;;6.90;;
11964;SDS011;6042;41.326;19.826;2023-02-11T12:33:49;10.73;;;6.03;;
11964;SDS011;6042;41.326;19.826;2023-02-11T12:36:38;8.97;;;7.03;;
11964;SDS011;6042;41.326;19.826;2023-02-11T12:39:18;11.90;;;7.70;;
11964;SDS011;6042;41.326;19.826;2023-02-11T12:42:02;14.17;;;8.60;;
11964;SDS011;6042;41.326;19.826;2023-02-11T12:45:12;13.23;;;8.87;;
11964;SDS011;6042;41.326;19.826;2023-02-11T12:47:56;10.10;;;7.50;;
11964;SDS011;6042;41.326;19.826;2023-02-11T12:50:37;11.33;;;7.97;;
11964;SDS011;6042;41.326;19.826;2023-02-11T12:53:22;8.87;;;7.20;;
11964;SDS011;6042;41.326;19.826;2023-02-11T12:56:02;11.83;;;7.33;;
11964;SDS011;6042;41.326;19.826;2023-02-11T12:58:34;16.43;;;8.60;;
11964;SDS011;6042;41.326;19.826;2023-02-11T13:01:14;13.67;;;9.17;;
11964;SDS011;6042;41.326;19.826;2023-02-11T13:03:48;10.60;;;6.93;;
11964;SDS011;6042;41.326;19.826;2023-02-11T13:06:21;9.57;;;7.13;;
11964;SDS011;6042;41.326;19.826;2023-02-11T13:08:57;10.23;;;7.17;;
11964;SDS011;6042;41.326;19.826;2023-02-11T13:11:29;9.77;;;7.37;;
11964;SDS011;6042;41.326;19.826;2023-02-11T13:14:05;18.97;;;8.13;;
11964;SDS011;6042;41.326;19.826;2023-02-11T13:16:39;12.70;;;7.23;;
11964;SDS011;6042;41.326;19.826;2023-02-11T13:19:13;7.87;;;5.83;;
11964;SDS011;6042;41.326;19.826;2023-02-11T13:22:00;9.10;;;5.90;;
11964;SDS011;6042;41.326;19.826;2023-02-11T13:24:35;9.23;;;7.20;;
11964;SDS011;6042;41.326;19.826;2023-02-11T13:27:12;12.63;;;7.03;;
11964;SDS011;6042;41.326;19.826;2023-02-11T13:33:02;9.37;;;7.27;;
11964;SDS011;6042;41.326;19.826;2023-02-11T13:35:33;12.73;;;7.50;;
11964;SDS011;6042;41.326;19.826;2023-02-11T13:38:03;9.87;;;7.07;;
11964;SDS011;6042;41.326;19.826;2023-02-11T13:40:40;22.33;;;8.00;;
11964;SDS011;6042;41.326;19.826;2023-02-11T13:43:18;10.90;;;8.33;;
11964;SDS011;6042;41.326;19.826;2023-02-11T13:45:49;13.33;;;7.70;;
11964;SDS011;6042;41.326;19.826;2023-02-11T13:48:26;13.53;;;8.27;;
11964;SDS011;6042;41.326;19.826;2023-02-11T13:50:57;12.90;;;8.43;;
11964;SDS011;6042;41.326;19.826;2023-02-11T13:53:28;10.70;;;7.70;;
11964;SDS011;6042;41.326;19.826;2023-02-11T13:56:10;12.03;;;8.20;;
11964;SDS011;6042;41.326;19.826;2023-02-11T13:58:50;8.17;;;7.10;;
11964;SDS011;6042;41.326;19.826;2023-02-11T14:01:38;16.43;;;8.03;;
11964;SDS011;6042;41.326;19.826;2023-02-11T14:04:19;11.20;;;7.53;;
11964;SDS011;6042;41.326;19.826;2023-02-11T14:07:25;11.07;;;6.90;;
11964;SDS011;6042;41.326;19.826;2023-02-11T14:13:19;9.97;;;7.00;;
11964;SDS011;6042;41.326;19.826;2023-02-11T14:16:02;7.97;;;5.93;;
11964;SDS011;6042;41.326;19.826;2023-02-11T14:18:36;9.40;;;6.40;;
11964;SDS011;6042;41.326;19.826;2023-02-11T14:21:22;7.90;;;6.40;;
11964;SDS011;6042;41.326;19.826;2023-02-11T14:27:14;9.90;;;6.73;;
11964;SDS011;6042;41.326;19.826;2023-02-11T14:29:55;9.17;;;5.97;;
11964;SDS011;6042;41.326;19.826;2023-02-11T14:32:43;8.27;;;5.00;;
11964;SDS011;6042;41.326;19.826;2023-02-11T14:35:22;6.73;;;6.07;;
11964;SDS011;6042;41.326;19.826;2023-02-11T14:38:00;6.83;;;5.47;;
11964;SDS011;6042;41.326;19.826;2023-02-11T14:40:38;9.73;;;6.10;;
11964;SDS011;6042;41.326;19.826;2023-02-11T14:43:14;9.23;;;6.27;;
11964;SDS011;6042;41.326;19.826;2023-02-11T14:45:48;12.50;;;7.27;;
11964;SDS011;6042;41.326;19.826;2023-02-11T14:48:18;17.93;;;8.13;;
11964;SDS011;6042;41.326;19.826;2023-02-11T14:50:50;13.20;;;7.73;;
11964;SDS011;6042;41.326;19.826;2023-02-11T14:53:23;12.13;;;7.33;;
11964;SDS011;6042;41.326;19.826;2023-02-11T14:55:53;14.53;;;7.20;;
11964;SDS011;6042;41.326;19.826;2023-02-11T14:58:22;14.83;;;7.60;;
11964;SDS011;6042;41.326;19.826;2023-02-11T15:00:53;12.93;;;7.77;;
11964;SDS011;6042;41.326;19.826;2023-02-11T15:03:28;12.63;;;7.70;;
11964;SDS011;6042;41.326;19.826;2023-02-11T15:05:59;16.57;;;7.57;;
11964;SDS011;6042;41.326;19.826;2023-02-11T15:08:32;12.33;;;7.43;;
11964;SDS011;6042;41.326;19.826;2023-02-11T15:11:07;9.80;;;7.03;;
11964;SDS011;6042;41.326;19.826;2023-02-11T15:13:39;9.00;;;5.37;;
11964;SDS011;6042;41.326;19.826;2023-02-11T15:16:15;11.83;;;5.67;;
11964;SDS011;6042;41.326;19.826;2023-02-11T15:18:47;13.97;;;6.47;;
11964;SDS011;6042;41.326;19.826;2023-02-11T15:21:19;15.83;;;7.90;;
11964;SDS011;6042;41.326;19.826;2023-02-11T15:23:57;13.33;;;7.67;;
11964;SDS011;6042;41.326;19.826;2023-02-11T15:26:28;34.97;;;9.33;;
11964;SDS011;6042;41.326;19.826;2023-02-11T15:28:57;7.83;;;5.77;;
11964;SDS011;6042;41.326;19.826;2023-02-11T15:31:26;8.20;;;5.70;;
11964;SDS011;6042;41.326;19.826;2023-02-11T15:34:05;11.60;;;5.40;;
11964;SDS011;6042;41.326;19.826;2023-02-11T15:36:34;9.07;;;5.20;;
11964;SDS011;6042;41.326;19.826;2023-02-11T15:39:26;10.87;;;5.53;;